Decoded Metar for ZGHA (CHANGCHA in CHINA) (IATA:CSX) | Meteo·Mobile Aviation Weather
aviador You're here:

ZGHA Decoded Metar

CHANGCHA in CHINA
Report Time2020-01-29 13:00:00
UTC Time2020-01-29 13:37:42
Flight Rules vfr VFR
Wind060° at 2 kt
W.Decomp.*RWY 36: 0.9 kt HW 1.8 kt RCW
Visibility8000 m
Phenomena:N/A
Clouds:N/A
Expected CloudBase > 800 ft AGL from Temp-Dew spread
CeilingNone
Temp05°C (ISA -10)
Dew Point03°C (87% RH)
AAT2.8°C
QNH1026 hPa
Density Alt-1,276 ft
Elevation217 ft
Report Wrong Elevation
Raw Report
ZGHA 291300Z 06001MPS 8000 NSC 05/03 Q1026 NOSIG=

Extra information for ZGHA:More info

Metar Taf Metar & Taf Last 4 Metars F.Rules Stats Wind Profile Meteogram Temp Stats Airport Information Weather charts Add Link Nearby VenuesMetar ALERT Operation Metar Decoded Social comments